createdAt,value
2018-06-30T00:01:45.242Z,100271.52
2018-06-30T00:04:16.163Z,100274.55
2018-06-30T00:06:44.088Z,100273.00
2018-06-30T00:09:11.960Z,100268.58
2018-06-30T00:11:39.920Z,100267.28
2018-06-30T00:14:07.873Z,100273.06
2018-06-30T00:16:35.773Z,100278.45
2018-06-30T00:19:03.684Z,100275.52
2018-06-30T00:21:31.585Z,100274.37
2018-06-30T00:23:59.452Z,100276.84
2018-06-30T00:26:27.481Z,100272.25
2018-06-30T00:28:55.509Z,100273.28
2018-06-30T00:31:23.392Z,100265.29
2018-06-30T00:33:51.310Z,100264.45
2018-06-30T00:36:19.163Z,100263.59
2018-06-30T00:38:47.097Z,100262.01
2018-06-30T00:41:15.018Z,100263.56
2018-06-30T00:43:42.820Z,100261.02
2018-06-30T00:46:10.713Z,100257.55
2018-06-30T00:48:38.662Z,100262.41
2018-06-30T00:51:06.885Z,100260.79
2018-06-30T00:53:34.800Z,100265.12
2018-06-30T00:56:02.700Z,100264.23
2018-06-30T00:58:30.626Z,100266.25
2018-06-30T01:00:58.552Z,100267.59
2018-06-30T01:03:26.535Z,100265.56
2018-06-30T01:05:54.611Z,100265.27
2018-06-30T01:08:22.456Z,100265.56
2018-06-30T01:10:50.397Z,100266.41
2018-06-30T01:13:18.534Z,100264.77
2018-06-30T01:15:46.452Z,100272.14
2018-06-30T01:18:14.313Z,100267.16
2018-06-30T01:20:43.104Z,100264.41
2018-06-30T01:23:11.199Z,100262.59
2018-06-30T01:25:39.356Z,100271.96
2018-06-30T01:28:07.181Z,100271.73
2018-06-30T01:30:35.001Z,100273.94
2018-06-30T01:33:02.855Z,100271.47
2018-06-30T01:35:30.816Z,100270.16
2018-06-30T01:37:58.903Z,100271.41
2018-06-30T01:40:26.891Z,100269.56
2018-06-30T01:42:55.009Z,100273.05
2018-06-30T01:45:22.933Z,100266.80
2018-06-30T01:47:50.867Z,100259.36
2018-06-30T01:50:18.807Z,100264.98
2018-06-30T01:52:46.669Z,100262.46
2018-06-30T01:55:14.578Z,100270.02
2018-06-30T01:57:42.458Z,100261.38
2018-06-30T02:00:10.457Z,100263.08
2018-06-30T02:02:38.326Z,100263.97
2018-06-30T02:05:06.251Z,100261.50
2018-06-30T02:07:34.149Z,100260.18
2018-06-30T02:10:02.112Z,100262.62
2018-06-30T02:12:30.025Z,100263.26
2018-06-30T02:14:58.028Z,100266.70
2018-06-30T02:17:26.230Z,100267.30
2018-06-30T02:19:54.120Z,100263.13
2018-06-30T02:22:22.057Z,100264.21
2018-06-30T02:24:49.945Z,100263.14
2018-06-30T02:27:17.774Z,100271.30
2018-06-30T02:29:45.645Z,100265.56
2018-06-30T02:32:13.603Z,100267.83
2018-06-30T02:34:41.481Z,100269.78
2018-06-30T02:37:09.394Z,100272.30
2018-06-30T02:39:37.296Z,100272.66
2018-06-30T02:42:05.241Z,100273.27
2018-06-30T02:44:33.125Z,100275.80
2018-06-30T02:47:00.993Z,100274.45
2018-06-30T02:49:28.922Z,100273.11
2018-06-30T02:51:56.785Z,100276.95
2018-06-30T02:54:24.747Z,100274.45
2018-06-30T02:56:52.653Z,100273.16
2018-06-30T02:59:20.902Z,100279.22
2018-06-30T03:01:49.101Z,100278.33
2018-06-30T03:04:16.948Z,100277.50
2018-06-30T03:06:44.799Z,100279.70
2018-06-30T03:09:12.673Z,100277.23
2018-06-30T03:11:40.801Z,100278.71
2018-06-30T03:14:08.707Z,100280.14
2018-06-30T03:16:39.155Z,100280.44
2018-06-30T03:19:07.192Z,100273.61
2018-06-30T03:21:35.200Z,100277.48
2018-06-30T03:24:03.109Z,100279.44
2018-06-30T03:26:31.034Z,100281.69
2018-06-30T03:28:58.875Z,100275.33
2018-06-30T03:31:26.763Z,100282.85
2018-06-30T03:33:54.602Z,100283.90
2018-06-30T03:36:22.604Z,100285.06
2018-06-30T03:38:50.442Z,100279.52
2018-06-30T03:41:18.402Z,100284.76
2018-06-30T03:43:46.277Z,100286.11
2018-06-30T03:46:14.170Z,100291.37
2018-06-30T03:48:42.005Z,100289.95
2018-06-30T03:51:09.888Z,100290.99
2018-06-30T03:53:37.762Z,100287.48
2018-06-30T03:56:05.789Z,100287.14
2018-06-30T03:58:33.673Z,100289.09
2018-06-30T04:01:01.562Z,100286.09
2018-06-30T04:03:29.526Z,100291.81
2018-06-30T04:05:57.369Z,100287.92
2018-06-30T04:08:25.263Z,100289.04
2018-06-30T04:10:53.157Z,100297.05
2018-06-30T04:13:21.090Z,100300.38
2018-06-30T04:15:49.009Z,100297.56
2018-06-30T04:18:16.969Z,100296.70
2018-06-30T04:20:44.888Z,100303.84
2018-06-30T04:23:12.767Z,100303.84
2018-06-30T04:25:40.630Z,100304.66
2018-06-30T04:28:08.597Z,100303.19
2018-06-30T04:30:36.461Z,100302.33
2018-06-30T04:33:05.000Z,100303.36
2018-06-30T04:35:32.885Z,100311.87
2018-06-30T04:38:00.741Z,100309.89
2018-06-30T04:40:28.594Z,100310.92
2018-06-30T04:42:56.536Z,100317.23
2018-06-30T04:45:24.398Z,100322.11
2018-06-30T04:47:52.200Z,100322.06
2018-06-30T04:50:20.121Z,100323.53
2018-06-30T04:52:47.921Z,100320.67
2018-06-30T04:55:15.889Z,100322.83
2018-06-30T04:57:43.842Z,100320.45
2018-06-30T05:00:11.674Z,100311.96
2018-06-30T05:02:39.585Z,100315.46
2018-06-30T05:05:07.481Z,100309.97
2018-06-30T05:07:35.540Z,100318.78
2018-06-30T05:10:04.084Z,100309.59
2018-06-30T05:12:31.925Z,100316.01
2018-06-30T05:14:59.810Z,100326.39
2018-06-30T05:17:27.972Z,100319.91
2018-06-30T05:19:55.902Z,100321.17
2018-06-30T05:22:23.849Z,100321.09
2018-06-30T05:24:51.732Z,100319.91
2018-06-30T05:27:19.557Z,100329.20
2018-06-30T05:29:47.453Z,100334.89
2018-06-30T05:32:15.378Z,100330.27
2018-06-30T05:34:43.222Z,100327.86
2018-06-30T05:37:11.074Z,100326.05
2018-06-30T05:39:38.930Z,100325.98
2018-06-30T05:42:06.828Z,100316.13
2018-06-30T05:44:34.884Z,100325.00
2018-06-30T05:47:02.765Z,100320.50
2018-06-30T05:49:30.609Z,100321.73
2018-06-30T05:51:58.477Z,100323.98
2018-06-30T05:54:26.423Z,100324.80
2018-06-30T05:56:54.304Z,100323.78
2018-06-30T05:59:23.920Z,100316.20
2018-06-30T06:01:51.881Z,100331.85
2018-06-30T06:04:20.273Z,100323.72
2018-06-30T06:06:48.224Z,100332.84
2018-06-30T06:09:16.073Z,100326.73
2018-06-30T06:11:43.937Z,100327.55
2018-06-30T06:14:11.782Z,100328.95
2018-06-30T06:16:39.613Z,100326.86
2018-06-30T06:19:08.137Z,100326.08
2018-06-30T06:21:36.149Z,100324.25
2018-06-30T06:24:04.406Z,100322.30
2018-06-30T06:26:32.395Z,100325.92
2018-06-30T06:29:00.233Z,100330.99
2018-06-30T06:31:28.156Z,100332.35
2018-06-30T06:33:56.063Z,100334.33
2018-06-30T06:36:24.012Z,100336.97
2018-06-30T06:38:51.968Z,100333.61
2018-06-30T06:41:20.144Z,100331.27
2018-06-30T06:43:48.062Z,100329.36
2018-06-30T06:46:15.957Z,100329.93
2018-06-30T06:48:44.033Z,100331.05
2018-06-30T06:51:11.922Z,100333.38
2018-06-30T06:53:39.789Z,100324.31
2018-06-30T06:56:07.673Z,100331.33
2018-06-30T06:58:35.537Z,100325.84
2018-06-30T07:01:04.153Z,100327.00
2018-06-30T07:03:31.997Z,100325.56
2018-06-30T07:05:59.941Z,100323.50
2018-06-30T07:08:27.829Z,100317.89
2018-06-30T07:10:55.713Z,100319.97
2018-06-30T07:13:23.761Z,100322.02
2018-06-30T07:15:51.675Z,100326.91
2018-06-30T07:18:19.580Z,100325.13
2018-06-30T07:20:47.508Z,100326.22
2018-06-30T07:23:15.403Z,100324.34
2018-06-30T07:25:43.301Z,100324.48
2018-06-30T07:28:11.229Z,100320.62
2018-06-30T07:30:39.183Z,100319.80
2018-06-30T07:33:07.265Z,100326.02
2018-06-30T07:35:35.169Z,100333.59
2018-06-30T07:38:03.329Z,100337.20
2018-06-30T07:40:31.272Z,100332.55
2018-06-30T07:42:59.192Z,100332.33
2018-06-30T07:45:27.059Z,100332.41
2018-06-30T07:47:55.601Z,100332.68
2018-06-30T07:50:23.591Z,100326.48
2018-06-30T07:52:51.451Z,100330.23
2018-06-30T07:55:19.391Z,100331.98
2018-06-30T07:57:47.201Z,100319.95
2018-06-30T08:00:15.169Z,100327.38
2018-06-30T08:02:43.109Z,100326.28
2018-06-30T08:05:11.037Z,100328.53
2018-06-30T08:07:38.903Z,100330.60
2018-06-30T08:10:06.837Z,100329.62
2018-06-30T08:12:34.700Z,100322.98
2018-06-30T08:15:02.575Z,100330.17
2018-06-30T08:17:30.485Z,100326.84
2018-06-30T08:19:58.476Z,100325.66
2018-06-30T08:22:26.362Z,100321.67
2018-06-30T08:24:54.239Z,100321.34
2018-06-30T08:27:22.200Z,100323.73
2018-06-30T08:29:50.180Z,100326.95
2018-06-30T08:32:18.146Z,100326.73
2018-06-30T08:34:46.057Z,100322.56
2018-06-30T08:37:14.242Z,100318.57
2018-06-30T08:39:42.120Z,100319.06
2018-06-30T08:42:10.017Z,100318.25
2018-06-30T08:44:37.998Z,100311.84
2018-06-30T08:47:05.898Z,100314.65
2018-06-30T08:49:34.249Z,100314.06
2018-06-30T08:52:02.578Z,100322.52
2018-06-30T08:54:31.107Z,100320.30
2018-06-30T08:56:59.037Z,100323.34
2018-06-30T08:59:26.929Z,100315.38
2018-06-30T09:01:54.842Z,100317.47
2018-06-30T09:04:22.726Z,100311.05
2018-06-30T09:06:51.792Z,100315.16
2018-06-30T09:09:19.709Z,100313.62
2018-06-30T09:11:54.409Z,100318.78
2018-06-30T09:14:27.820Z,100321.91
2018-06-30T09:16:55.790Z,100305.88
2018-06-30T09:19:23.861Z,100316.88
2018-06-30T09:21:53.330Z,100319.91
2018-06-30T09:24:21.293Z,100313.62
2018-06-30T09:26:49.184Z,100309.41
2018-06-30T09:29:17.033Z,100308.91
2018-06-30T09:31:44.896Z,100309.27
2018-06-30T09:34:12.863Z,100313.56
2018-06-30T09:36:40.670Z,100315.70
2018-06-30T09:39:10.012Z,100318.87
2018-06-30T09:41:38.205Z,100323.67
2018-06-30T09:44:06.632Z,100321.67
2018-06-30T09:46:34.737Z,100329.10
2018-06-30T09:49:02.590Z,100335.02
2018-06-30T09:51:30.472Z,100323.95
2018-06-30T09:53:58.420Z,100324.38
2018-06-30T09:56:26.273Z,100316.83
2018-06-30T09:58:54.181Z,100321.75
2018-06-30T10:01:22.065Z,100306.49
2018-06-30T10:03:49.925Z,100308.30
2018-06-30T10:06:17.845Z,100309.97
2018-06-30T10:08:45.789Z,100292.97
2018-06-30T10:11:13.669Z,100289.93
2018-06-30T10:13:41.485Z,100285.86
2018-06-30T10:16:09.355Z,100286.19
2018-06-30T10:18:37.225Z,100281.86
2018-06-30T10:21:05.208Z,100276.79
2018-06-30T10:23:33.050Z,100282.64
2018-06-30T10:26:00.972Z,100283.20
2018-06-30T10:28:28.821Z,100267.64
2018-06-30T10:30:56.663Z,100266.84
2018-06-30T10:33:24.480Z,100274.68
2018-06-30T10:35:52.372Z,100267.06
2018-06-30T10:38:20.185Z,100269.14
2018-06-30T10:40:48.106Z,100271.89
2018-06-30T10:43:15.933Z,100266.70
2018-06-30T10:45:43.814Z,100258.98
2018-06-30T10:48:11.710Z,100268.28
2018-06-30T10:50:39.601Z,100257.73
2018-06-30T10:53:07.461Z,100259.87
2018-06-30T10:55:35.328Z,100260.50
2018-06-30T10:58:03.340Z,100261.17
2018-06-30T11:00:31.522Z,100253.66
2018-06-30T11:02:59.260Z,100256.12
2018-06-30T11:05:27.161Z,100257.53
2018-06-30T11:07:55.338Z,100251.89
2018-06-30T11:10:23.189Z,100256.59
2018-06-30T11:12:51.049Z,100254.86
2018-06-30T11:15:19.068Z,100245.83
2018-06-30T11:17:46.980Z,100249.11
2018-06-30T11:20:15.001Z,100238.30
2018-06-30T11:22:42.802Z,100242.42
2018-06-30T11:25:10.663Z,100254.73
2018-06-30T11:27:38.591Z,100240.50
2018-06-30T11:30:06.542Z,100244.71
2018-06-30T11:32:34.853Z,100241.01
2018-06-30T11:35:02.815Z,100230.00
2018-06-30T11:37:31.253Z,100237.09
2018-06-30T11:39:59.109Z,100234.91
2018-06-30T11:42:27.045Z,100226.92
2018-06-30T11:44:55.006Z,100224.51
2018-06-30T11:47:22.925Z,100237.52
2018-06-30T11:49:50.745Z,100228.23
2018-06-30T11:52:20.943Z,100234.43
2018-06-30T11:54:53.324Z,100224.28
2018-06-30T11:57:25.604Z,100228.25
2018-06-30T11:59:55.287Z,100231.91
2018-06-30T12:02:28.017Z,100225.04
2018-06-30T12:04:57.984Z,100223.34
2018-06-30T12:07:25.884Z,100221.20
2018-06-30T12:09:54.796Z,100219.56
2018-06-30T12:12:22.688Z,100219.50
2018-06-30T12:14:50.582Z,100230.32
2018-06-30T12:17:18.520Z,100222.70
2018-06-30T12:19:46.433Z,100215.12
2018-06-30T12:22:14.326Z,100215.45
2018-06-30T12:24:42.198Z,100230.63
2018-06-30T12:27:10.180Z,100218.73
2018-06-30T12:29:37.970Z,100217.72
2018-06-30T12:32:05.890Z,100214.84
2018-06-30T12:34:33.758Z,100210.30
2018-06-30T12:37:01.666Z,100212.27
2018-06-30T12:39:29.520Z,100206.13
2018-06-30T12:41:57.453Z,100210.88
2018-06-30T12:44:25.298Z,100206.00
2018-06-30T12:46:53.175Z,100201.64
2018-06-30T12:49:21.047Z,100198.72
2018-06-30T12:51:49.017Z,100193.58
2018-06-30T12:54:16.969Z,100196.15
2018-06-30T12:56:44.837Z,100202.23
2018-06-30T12:59:12.721Z,100199.89
2018-06-30T13:01:40.610Z,100194.97
2018-06-30T13:04:08.572Z,100200.78
2018-06-30T13:06:36.461Z,100195.22
2018-06-30T13:09:09.519Z,100196.57
2018-06-30T13:11:37.413Z,100192.45
2018-06-30T13:14:05.967Z,100190.78
2018-06-30T13:16:34.213Z,100191.70
2018-06-30T13:19:02.263Z,100194.30
2018-06-30T13:21:30.145Z,100187.59
2018-06-30T13:23:58.079Z,100186.06
2018-06-30T13:26:26.029Z,100182.02
2018-06-30T13:28:53.922Z,100184.88
2018-06-30T13:31:21.769Z,100179.50
2018-06-30T13:33:49.622Z,100179.81
2018-06-30T13:36:17.554Z,100179.33
2018-06-30T13:38:45.453Z,100177.88
2018-06-30T13:41:13.377Z,100180.61
2018-06-30T13:43:41.332Z,100180.25
2018-06-30T13:46:09.483Z,100183.77
2018-06-30T13:48:37.377Z,100182.11
2018-06-30T13:51:05.361Z,100178.50
2018-06-30T13:53:33.241Z,100173.84
2018-06-30T13:56:01.169Z,100172.95
2018-06-30T13:58:29.087Z,100173.89
2018-06-30T14:00:57.037Z,100177.06
2018-06-30T14:03:24.882Z,100171.12
2018-06-30T14:05:52.762Z,100179.34
2018-06-30T14:08:20.653Z,100169.45
2018-06-30T14:10:48.509Z,100167.01
2018-06-30T14:13:16.786Z,100173.31
2018-06-30T14:15:44.754Z,100171.30
2018-06-30T14:18:12.676Z,100165.20
2018-06-30T14:20:40.537Z,100171.44
2018-06-30T14:23:08.401Z,100164.49
2018-06-30T14:25:36.344Z,100164.88
2018-06-30T14:28:04.420Z,100159.53
2018-06-30T14:30:32.349Z,100161.71
2018-06-30T14:33:00.197Z,100153.23
2018-06-30T14:35:28.069Z,100156.67
2018-06-30T14:37:56.022Z,100152.34
2018-06-30T14:40:23.954Z,100153.35
2018-06-30T14:42:51.773Z,100150.06
2018-06-30T14:45:19.633Z,100145.71
2018-06-30T14:47:47.706Z,100153.84
2018-06-30T14:50:15.683Z,100159.45
2018-06-30T14:52:43.653Z,100152.08
2018-06-30T14:55:11.569Z,100150.72
2018-06-30T14:57:39.416Z,100154.89
2018-06-30T15:00:08.511Z,100148.98
2018-06-30T15:02:36.566Z,100153.23
2018-06-30T15:05:05.885Z,100158.19
2018-06-30T15:07:33.805Z,100157.66
2018-06-30T15:10:01.745Z,100159.72
2018-06-30T15:12:29.657Z,100161.90
2018-06-30T15:14:57.562Z,100155.80
2018-06-30T15:17:25.453Z,100163.70
2018-06-30T15:19:53.385Z,100157.15
2018-06-30T15:22:21.282Z,100161.23
2018-06-30T15:24:49.330Z,100161.22
2018-06-30T15:27:17.430Z,100167.13
2018-06-30T15:29:45.365Z,100167.03
2018-06-30T15:32:13.237Z,100157.70
2018-06-30T15:34:41.627Z,100161.98
2018-06-30T15:37:09.525Z,100161.48
2018-06-30T15:39:37.487Z,100163.14
2018-06-30T15:42:05.525Z,100163.78
2018-06-30T15:44:33.425Z,100155.09
2018-06-30T15:47:01.445Z,100161.12
2018-06-30T15:49:29.376Z,100156.41
2018-06-30T15:51:57.341Z,100155.84
2018-06-30T15:54:25.150Z,100155.48
2018-06-30T15:56:53.229Z,100153.21
2018-06-30T15:59:21.150Z,100156.34
2018-06-30T16:01:48.987Z,100163.08
2018-06-30T16:04:16.919Z,100164.09
2018-06-30T16:06:44.823Z,100159.06
2018-06-30T16:09:12.760Z,100146.25
2018-06-30T16:11:40.953Z,100153.89
2018-06-30T16:14:09.117Z,100156.32
2018-06-30T16:16:37.613Z,100154.63
2018-06-30T16:19:05.530Z,100148.42
2018-06-30T16:21:33.497Z,100158.01
2018-06-30T16:24:01.423Z,100149.94
2018-06-30T16:26:29.385Z,100152.03
2018-06-30T16:28:57.590Z,100157.12
2018-06-30T16:31:25.469Z,100155.06
2018-06-30T16:33:53.458Z,100157.07
2018-06-30T16:36:21.753Z,100155.53
2018-06-30T16:38:56.165Z,100149.45
2018-06-30T16:41:30.394Z,100162.37
2018-06-30T16:43:58.389Z,100159.56
2018-06-30T16:46:26.213Z,100156.88
2018-06-30T16:48:54.101Z,100155.55
2018-06-30T16:51:21.989Z,100162.45
2018-06-30T16:53:49.958Z,100162.09
2018-06-30T16:56:17.994Z,100155.70
2018-06-30T16:58:45.914Z,100166.93
2018-06-30T17:01:13.783Z,100163.24
2018-06-30T17:03:42.545Z,100157.09
2018-06-30T17:06:11.133Z,100164.34
2018-06-30T17:08:39.076Z,100164.34
2018-06-30T17:11:07.014Z,100165.72
2018-06-30T17:13:35.051Z,100167.94
2018-06-30T17:16:02.992Z,100171.28
2018-06-30T17:18:31.034Z,100176.14
2018-06-30T17:20:59.037Z,100175.44
2018-06-30T17:23:31.387Z,100173.05
2018-06-30T17:25:59.623Z,100175.14
2018-06-30T17:28:29.219Z,100176.45
2018-06-30T17:30:57.213Z,100172.55
2018-06-30T17:33:25.132Z,100174.82
2018-06-30T17:35:52.965Z,100179.09
2018-06-30T17:38:20.795Z,100177.73
2018-06-30T17:40:48.713Z,100193.25
2018-06-30T17:43:16.597Z,100187.40
2018-06-30T17:45:44.492Z,100184.58
2018-06-30T17:48:12.394Z,100187.50
2018-06-30T17:50:40.509Z,100179.87
2018-06-30T17:53:08.897Z,100183.44
2018-06-30T17:55:37.977Z,100185.92
2018-06-30T17:58:06.169Z,100185.78
2018-06-30T18:00:34.049Z,100192.28
2018-06-30T18:03:02.762Z,100193.45
2018-06-30T18:05:30.582Z,100194.55
2018-06-30T18:07:58.419Z,100191.31
2018-06-30T18:10:26.340Z,100195.31
2018-06-30T18:12:54.257Z,100202.78
2018-06-30T18:15:22.297Z,100204.65
2018-06-30T18:17:50.249Z,100196.33
2018-06-30T18:20:18.631Z,100200.31
2018-06-30T18:22:46.806Z,100199.63
2018-06-30T18:25:14.692Z,100203.60
2018-06-30T18:27:42.568Z,100206.98
2018-06-30T18:30:10.505Z,100200.22
2018-06-30T18:32:38.519Z,100200.44
2018-06-30T18:35:07.137Z,100204.72
2018-06-30T18:37:35.077Z,100199.87
2018-06-30T18:40:03.504Z,100218.07
2018-06-30T18:42:31.747Z,100216.77
2018-06-30T18:44:59.869Z,100216.55
2018-06-30T18:47:27.750Z,100216.05
2018-06-30T18:49:55.643Z,100218.94
2018-06-30T18:52:23.593Z,100221.24
2018-06-30T18:54:51.449Z,100229.16
2018-06-30T18:57:19.293Z,100223.58
2018-06-30T18:59:47.193Z,100222.48
2018-06-30T19:02:15.360Z,100221.73
2018-06-30T19:04:44.190Z,100225.44
2018-06-30T19:07:12.049Z,100228.48
2018-06-30T19:09:40.410Z,100223.22
2018-06-30T19:12:08.927Z,100228.41
2018-06-30T19:14:36.818Z,100232.35
2018-06-30T19:17:04.949Z,100233.69
2018-06-30T19:19:32.806Z,100243.35
2018-06-30T19:22:01.071Z,100235.98
2018-06-30T19:24:31.598Z,100246.73
2018-06-30T19:27:00.213Z,100247.27
2018-06-30T19:29:28.320Z,100246.69
2018-06-30T19:31:56.397Z,100254.08
2018-06-30T19:34:25.203Z,100257.77
2018-06-30T19:36:53.588Z,100261.47
2018-06-30T19:39:21.520Z,100266.55
2018-06-30T19:41:51.497Z,100263.30
2018-06-30T19:44:23.340Z,100276.52
2018-06-30T19:46:51.317Z,100275.61
2018-06-30T19:49:19.577Z,100279.69
2018-06-30T19:51:47.585Z,100285.16
2018-06-30T19:54:15.483Z,100287.73
2018-06-30T19:56:43.551Z,100291.58
2018-06-30T19:59:15.268Z,100297.02
2018-06-30T20:01:43.216Z,100300.09
2018-06-30T20:04:12.377Z,100305.34
2018-06-30T20:06:41.652Z,100312.02
2018-06-30T20:09:11.292Z,100312.80
2018-06-30T20:11:39.385Z,100318.94
2018-06-30T20:14:13.910Z,100320.77
2018-06-30T20:16:44.363Z,100326.66
2018-06-30T20:19:12.699Z,100321.14
2018-06-30T20:21:41.128Z,100329.25
2018-06-30T20:24:09.036Z,100338.50
2018-06-30T20:26:44.175Z,100338.28
2018-06-30T20:29:14.722Z,100341.19
2018-06-30T20:31:42.625Z,100343.14
2018-06-30T20:34:10.578Z,100344.02
2018-06-30T20:36:39.221Z,100341.23
2018-06-30T20:39:09.990Z,100350.20
2018-06-30T20:41:38.741Z,100352.88
2018-06-30T20:44:07.538Z,100357.18
2018-06-30T20:46:35.441Z,100358.83
2018-06-30T20:49:03.860Z,100366.45
2018-06-30T20:51:34.560Z,100372.25
2018-06-30T20:54:02.575Z,100374.15
2018-06-30T20:56:31.237Z,100380.63
2018-06-30T20:58:59.165Z,100385.23
2018-06-30T21:01:27.215Z,100387.35
2018-06-30T21:03:55.007Z,100389.11
2018-06-30T21:06:22.898Z,100393.64
2018-06-30T21:08:50.826Z,100392.61
2018-06-30T21:11:19.290Z,100402.76
2018-06-30T21:13:47.138Z,100403.09
2018-06-30T21:16:16.099Z,100405.48
2018-06-30T21:18:44.354Z,100405.73
2018-06-30T21:21:22.252Z,100418.05
2018-06-30T21:23:51.309Z,100422.27
2018-06-30T21:26:19.410Z,100419.60
2018-06-30T21:28:47.365Z,100422.68
2018-06-30T21:31:15.219Z,100422.06
2018-06-30T21:33:43.092Z,100420.44
2018-06-30T21:36:11.117Z,100420.37
2018-06-30T21:38:39.085Z,100417.59
2018-06-30T21:41:07.145Z,100427.00
2018-06-30T21:43:34.989Z,100430.17
2018-06-30T21:46:02.837Z,100427.47
2018-06-30T21:48:30.722Z,100437.47
2018-06-30T21:50:59.280Z,100433.53
2018-06-30T21:53:27.739Z,100432.48
2018-06-30T21:55:55.777Z,100440.19
2018-06-30T21:58:23.640Z,100439.19
2018-06-30T22:00:57.291Z,100440.05
2018-06-30T22:03:26.478Z,100443.53
2018-06-30T22:05:55.777Z,100443.19
2018-06-30T22:08:26.559Z,100449.36
2018-06-30T22:10:54.758Z,100448.87
2018-06-30T22:13:22.853Z,100453.05
2018-06-30T22:15:50.805Z,100447.94
2018-06-30T22:18:18.916Z,100443.23
2018-06-30T22:20:46.892Z,100454.23
2018-06-30T22:23:14.744Z,100447.97
2018-06-30T22:25:42.593Z,100449.35
2018-06-30T22:28:10.501Z,100460.73
2018-06-30T22:30:38.471Z,100459.38
2018-06-30T22:33:06.312Z,100463.05
2018-06-30T22:35:34.233Z,100465.56
2018-06-30T22:38:02.129Z,100464.52
2018-06-30T22:40:29.993Z,100469.24
2018-06-30T22:42:57.954Z,100467.52
2018-06-30T22:45:25.952Z,100473.59
2018-06-30T22:47:53.875Z,100473.91
2018-06-30T22:50:21.790Z,100483.88
2018-06-30T22:52:49.756Z,100476.24
2018-06-30T22:55:17.681Z,100483.09
2018-06-30T22:57:45.585Z,100487.31
2018-06-30T23:00:16.210Z,100486.22
2018-06-30T23:02:44.149Z,100482.36
2018-06-30T23:05:12.085Z,100489.56
2018-06-30T23:07:40.064Z,100490.14
2018-06-30T23:10:09.933Z,100489.05
2018-06-30T23:12:37.921Z,100494.28
2018-06-30T23:15:06.369Z,100483.82
2018-06-30T23:17:34.271Z,100482.98
2018-06-30T23:20:02.358Z,100489.05
2018-06-30T23:23:08.054Z,100492.39
2018-06-30T23:25:36.515Z,100487.16
2018-06-30T23:28:04.561Z,100489.92
2018-06-30T23:30:32.786Z,100490.72
2018-06-30T23:33:00.685Z,100486.03
2018-06-30T23:35:29.580Z,100487.97
2018-06-30T23:37:58.554Z,100496.27
2018-06-30T23:40:26.586Z,100491.02
2018-06-30T23:42:54.570Z,100502.33
2018-06-30T23:45:22.886Z,100499.56
2018-06-30T23:47:51.633Z,100495.96
2018-06-30T23:50:19.931Z,100501.75
2018-06-30T23:52:47.930Z,100500.66
2018-06-30T23:55:15.896Z,100489.36
2018-06-30T23:57:43.841Z,100496.78
